Time;durP1;ratioP1;P1;durP2;ratioP2;P2;SDS_P1;SDS_P2;PMS_P1;PMS_P2;Temp;Humidity;BMP_temperature;BMP_pressure;BME280_temperature;BME280_humidity;BME280_pressure;Samples;Min_cycle;Max_cycle;Signal;HPM_P1;HPM_P2
2022/03/10 00:01:06;;;;;;;19.88;9.18;;;;;;;;;;6319177;28;20102;-74
2022/03/10 00:04:09;;;;;;;24.67;9.68;;;;;;;;;;6299414;28;20485;-73
2022/03/10 00:07:14;;;;;;;22.65;9.93;;;;;;;;;;6317953;28;20040;-74
2022/03/10 00:10:17;;;;;;;21.65;9.57;;;;;;;;;;6299970;28;20753;-73
2022/03/10 00:13:29;;;;;;;29.15;13.13;;;;;;;;;;6299866;28;20074;-73
2022/03/10 00:16:33;;;;;;;22.08;9.18;;;;;;;;;;6316873;28;20055;-74
2022/03/10 00:19:37;;;;;;;23.23;8.85;;;;;;;;;;6299652;28;20044;-74
2022/03/10 00:22:45;;;;;;;17.67;8.50;;;;;;;;;;6300120;28;20044;-73
2022/03/10 00:25:51;;;;;;;19.52;9.07;;;;;;;;;;6317329;28;20048;-72
2022/03/10 00:28:55;;;;;;;19.90;9.07;;;;;;;;;;6316751;28;20054;-73
2022/03/10 00:32:02;;;;;;;17.13;9.02;;;;;;;;;;6318048;28;20040;-72
2022/03/10 00:35:05;;;;;;;19.10;8.80;;;;;;;;;;6317466;28;20650;-72
2022/03/10 00:38:11;;;;;;;;;;;;;;;;;;6333952;28;20505;-72
2022/03/10 00:41:14;;;;;;;17.63;8.88;;;;;;;;;;6299581;28;19920;-73
2022/03/10 00:44:19;;;;;;;16.80;9.25;;;;;;;;;;6318229;28;20429;-74
2022/03/10 00:47:27;;;;;;;20.83;9.30;;;;;;;;;;6315318;28;20548;-72
2022/03/10 00:50:31;;;;;;;23.88;9.23;;;;;;;;;;6296725;28;20048;-72
2022/03/10 00:53:34;;;;;;;19.02;9.18;;;;;;;;;;6315733;28;20122;-71
2022/03/10 00:56:38;;;;;;;18.75;9.02;;;;;;;;;;6298469;28;20497;-73
2022/03/10 00:59:46;;;;;;;19.92;8.95;;;;;;;;;;6316345;28;20052;-73
2022/03/10 01:02:52;;;;;;;22.38;9.38;;;;;;;;;;6298948;28;20052;-74
2022/03/10 01:05:56;;;;;;;22.58;8.77;;;;;;;;;;6317658;28;20482;-73
2022/03/10 01:09:02;;;;;;;16.20;8.23;;;;;;;;;;6317100;28;20047;-73
2022/03/10 01:12:05;;;;;;;20.02;9.25;;;;;;;;;;6298829;28;20482;-74
2022/03/10 01:15:11;;;;;;;21.45;9.32;;;;;;;;;;6298777;28;20070;-72
2022/03/10 01:18:14;;;;;;;19.67;10.13;;;;;;;;;;6299182;28;20059;-73
2022/03/10 01:21:18;;;;;;;20.92;9.20;;;;;;;;;;6298801;28;20048;-75
2022/03/10 01:24:21;;;;;;;20.52;9.68;;;;;;;;;;6298887;28;20549;-75
2022/03/10 01:27:24;;;;;;;20.73;8.95;;;;;;;;;;6298800;28;20048;-74
2022/03/10 01:30:32;;;;;;;20.27;8.73;;;;;;;;;;6316530;28;20054;-73
2022/03/10 01:33:35;;;;;;;17.67;8.20;;;;;;;;;;6317001;28;20475;-73
2022/03/10 01:36:41;;;;;;;23.73;9.68;;;;;;;;;;6298581;28;20054;-72
2022/03/10 01:39:45;;;;;;;20.42;9.27;;;;;;;;;;6298721;28;20048;-74
2022/03/10 01:42:48;;;;;;;20.65;9.52;;;;;;;;;;6298096;28;20051;-74
2022/03/10 01:45:54;;;;;;;18.15;9.15;;;;;;;;;;6297178;28;20406;-73
2022/03/10 01:48:57;;;;;;;19.77;9.07;;;;;;;;;;6316018;28;20101;-72
2022/03/10 01:52:00;;;;;;;18.77;9.45;;;;;;;;;;6316228;28;20051;-75
2022/03/10 01:55:06;;;;;;;18.52;8.75;;;;;;;;;;6316913;28;20137;-73
2022/03/10 01:58:10;;;;;;;18.17;8.95;;;;;;;;;;6298682;28;20051;-73
2022/03/10 02:01:15;;;;;;;19.38;9.68;;;;;;;;;;6316348;28;20040;-73
2022/03/10 02:04:19;;;;;;;20.60;9.15;;;;;;;;;;6316635;28;20052;-73
2022/03/10 02:10:47;;;;;;;19.42;9.18;;;;;;;;;;6316640;28;20478;-74
2022/03/10 02:13:52;;;;;;;19.85;10.00;;;;;;;;;;6313905;28;20040;-74
2022/03/10 02:20:21;;;;;;;20.35;10.35;;;;;;;;;;6295388;28;20104;-73
2022/03/10 02:23:27;;;;;;;20.70;10.50;;;;;;;;;;6295865;28;20119;-73
2022/03/10 02:26:30;;;;;;;24.13;9.95;;;;;;;;;;6313632;28;20467;-74
2022/03/10 02:29:34;;;;;;;19.40;9.82;;;;;;;;;;6315803;28;20382;-73
2022/03/10 02:32:37;;;;;;;21.77;10.48;;;;;;;;;;6298655;28;20105;-74
2022/03/10 02:35:40;;;;;;;22.55;10.48;;;;;;;;;;6298388;28;20040;-74
2022/03/10 02:38:45;;;;;;;20.63;9.82;;;;;;;;;;6297085;28;20079;-73
2022/03/10 02:41:49;;;;;;;21.40;10.43;;;;;;;;;;6316191;28;20056;-74
2022/03/10 02:44:52;;;;;;;21.92;9.98;;;;;;;;;;6298098;28;20044;-74
2022/03/10 02:47:57;;;;;;;21.45;11.10;;;;;;;;;;6313222;28;20048;-74
2022/03/10 02:51:01;;;;;;;21.63;10.90;;;;;;;;;;6294949;28;20043;-76
2022/03/10 02:54:05;;;;;;;21.60;11.48;;;;;;;;;;6314131;28;20485;-75
2022/03/10 02:57:09;;;;;;;21.80;11.00;;;;;;;;;;6314543;28;20056;-74
2022/03/10 03:00:14;;;;;;;25.83;11.85;;;;;;;;;;6318155;28;20052;-74
2022/03/10 03:03:20;;;;;;;20.27;10.80;;;;;;;;;;6300505;28;20047;-74
2022/03/10 03:06:23;;;;;;;22.33;12.13;;;;;;;;;;6299138;28;20044;-74
2022/03/10 03:09:31;;;;;;;23.50;11.20;;;;;;;;;;6300150;28;20051;-74
2022/03/10 03:12:34;;;;;;;22.75;11.07;;;;;;;;;;6319448;28;20067;-75
2022/03/10 03:15:37;;;;;;;24.33;12.23;;;;;;;;;;6319732;28;20056;-74
2022/03/10 03:18:41;;;;;;;22.63;12.15;;;;;;;;;;6301847;28;20047;-74
2022/03/10 03:21:44;;;;;;;22.38;11.35;;;;;;;;;;6319845;28;20048;-74
2022/03/10 03:24:48;;;;;;;26.38;11.13;;;;;;;;;;6320055;28;20044;-73
2022/03/10 03:27:54;;;;;;;22.30;10.98;;;;;;;;;;6301716;28;20055;-75
2022/03/10 03:30:57;;;;;;;21.60;11.35;;;;;;;;;;6319558;28;20470;-74
2022/03/10 03:34:09;;;;;;;24.05;12.43;;;;;;;;;;6301792;28;20082;-74
2022/03/10 03:37:13;;;;;;;22.02;10.90;;;;;;;;;;6319843;28;20436;-74
2022/03/10 03:40:17;;;;;;;24.17;11.38;;;;;;;;;;6319346;28;20055;-75
2022/03/10 03:43:24;;;;;;;19.75;10.95;;;;;;;;;;6319769;28;20122;-74
2022/03/10 03:46:27;;;;;;;23.33;12.05;;;;;;;;;;6301689;28;20387;-74
2022/03/10 03:49:31;;;;;;;23.23;11.88;;;;;;;;;;6301656;28;20051;-74
2022/03/10 03:52:34;;;;;;;23.40;11.85;;;;;;;;;;6301654;28;20055;-74
2022/03/10 03:55:43;;;;;;;24.63;13.00;;;;;;;;;;6301395;28;20043;-74
2022/03/10 03:58:47;;;;;;;26.65;12.48;;;;;;;;;;6301353;28;20043;-74
2022/03/10 04:01:50;;;;;;;23.52;12.25;;;;;;;;;;6300962;28;20062;-74
2022/03/10 04:04:53;;;;;;;23.75;12.90;;;;;;;;;;6301305;28;20032;-74
2022/03/10 04:07:57;;;;;;;24.35;12.65;;;;;;;;;;6318589;28;20432;-74
2022/03/10 04:11:03;;;;;;;26.75;13.10;;;;;;;;;;6318801;28;20069;-75
2022/03/10 04:14:07;;;;;;;26.48;14.23;;;;;;;;;;6300797;28;20051;-74
2022/03/10 04:17:09;;;;;;;35.50;16.65;;;;;;;;;;6318940;28;20056;-74
2022/03/10 04:20:13;;;;;;;29.25;15.45;;;;;;;;;;6300813;28;20052;-75
2022/03/10 04:23:16;;;;;;;33.03;17.00;;;;;;;;;;6300189;28;20055;-74
2022/03/10 04:26:21;;;;;;;36.72;18.73;;;;;;;;;;6318767;28;20052;-74
2022/03/10 04:29:26;;;;;;;33.38;18.67;;;;;;;;;;6300787;28;20048;-74
2022/03/10 04:32:30;;;;;;;34.83;17.25;;;;;;;;;;6318580;28;20044;-74
2022/03/10 04:35:33;;;;;;;31.17;16.27;;;;;;;;;;6300333;28;20486;-73
2022/03/10 04:38:37;;;;;;;29.83;15.20;;;;;;;;;;6300665;28;20584;-75
2022/03/10 04:41:42;;;;;;;23.45;12.85;;;;;;;;;;6299651;28;20112;-74
2022/03/10 04:44:45;;;;;;;21.17;11.10;;;;;;;;;;6297574;28;20044;-74
2022/03/10 04:47:48;;;;;;;19.15;9.70;;;;;;;;;;6300083;28;20285;-75
2022/03/10 04:50:52;;;;;;;19.30;9.55;;;;;;;;;;6317804;28;20044;-73
2022/03/10 04:53:55;;;;;;;18.70;9.20;;;;;;;;;;6317389;28;20044;-74
2022/03/10 04:57:05;;;;;;;18.92;8.85;;;;;;;;;;6298717;28;20357;-74
2022/03/10 05:00:12;;;;;;;14.65;7.35;;;;;;;;;;6331070;28;20181;-75
2022/03/10 05:03:15;;;;;;;13.77;7.05;;;;;;;;;;6314918;28;20098;-75
2022/03/10 05:06:18;;;;;;;12.73;6.53;;;;;;;;;;6314623;28;20048;-76
2022/03/10 05:09:22;;;;;;;13.93;6.25;;;;;;;;;;6297229;28;20075;-75
2022/03/10 05:12:27;;;;;;;13.95;6.35;;;;;;;;;;6316389;28;20044;-74
2022/03/10 05:15:32;;;;;;;12.65;6.57;;;;;;;;;;6298717;28;20250;-75
2022/03/10 05:18:35;;;;;;;13.82;6.78;;;;;;;;;;6317083;28;20051;-75
2022/03/10 05:21:39;;;;;;;16.17;8.13;;;;;;;;;;6298814;28;20050;-75
2022/03/10 05:24:42;;;;;;;16.55;8.57;;;;;;;;;;6298757;28;20556;-74
2022/03/10 05:27:47;;;;;;;17.23;9.18;;;;;;;;;;6316791;28;20397;-74
2022/03/10 05:30:50;;;;;;;16.47;8.63;;;;;;;;;;6317143;28;20193;-74
2022/03/10 05:33:54;;;;;;;20.48;9.55;;;;;;;;;;6299277;28;20048;-73
2022/03/10 05:37:00;;;;;;;16.02;8.25;;;;;;;;;;6317007;28;20059;-75
2022/03/10 05:40:05;;;;;;;17.50;7.50;;;;;;;;;;6317079;28;20052;-75
2022/03/10 05:43:13;;;;;;;13.40;6.78;;;;;;;;;;6298780;28;20067;-74
2022/03/10 05:46:20;;;;;;;13.90;7.00;;;;;;;;;;6298740;28;20109;-75
2022/03/10 05:49:26;;;;;;;13.23;7.00;;;;;;;;;;6316756;28;20058;-74
2022/03/10 05:52:32;;;;;;;13.68;7.28;;;;;;;;;;6299131;28;20048;-75
2022/03/10 05:55:38;;;;;;;12.00;6.85;;;;;;;;;;6316807;28;20056;-75
2022/03/10 05:58:43;;;;;;;13.32;6.43;;;;;;;;;;6298081;28;20486;-74
2022/03/10 06:01:46;;;;;;;13.77;5.97;;;;;;;;;;6316811;28;20500;-74
2022/03/10 06:04:50;;;;;;;12.30;6.07;;;;;;;;;;6316535;28;20074;-74
2022/03/10 06:07:56;;;;;;;9.82;4.78;;;;;;;;;;6298690;28;20050;-74
2022/03/10 06:11:04;;;;;;;9.73;5.22;;;;;;;;;;6316346;28;20489;-74
2022/03/10 06:14:11;;;;;;;10.05;5.10;;;;;;;;;;6298401;28;20040;-74
2022/03/10 06:17:15;;;;;;;8.63;4.35;;;;;;;;;;6298044;28;20131;-74
2022/03/10 06:20:19;;;;;;;7.97;5.00;;;;;;;;;;6316024;28;20054;-74
2022/03/10 06:23:22;;;;;;;8.93;4.28;;;;;;;;;;6298286;28;20440;-75
2022/03/10 06:26:25;;;;;;;6.80;3.80;;;;;;;;;;6298299;28;20126;-75
2022/03/10 06:29:30;;;;;;;9.07;4.40;;;;;;;;;;6298436;28;20044;-73
2022/03/10 06:32:36;;;;;;;9.65;4.25;;;;;;;;;;6318544;28;20048;-74
2022/03/10 06:35:42;;;;;;;8.00;4.43;;;;;;;;;;6321401;28;20078;-73
2022/03/10 06:38:47;;;;;;;7.90;4.25;;;;;;;;;;6321366;28;20043;-73
2022/03/10 06:41:50;;;;;;;8.15;4.50;;;;;;;;;;6320795;28;20051;-75
2022/03/10 06:44:55;;;;;;;15.57;5.32;;;;;;;;;;6302917;28;20040;-74
2022/03/10 06:47:58;;;;;;;9.00;4.05;;;;;;;;;;6303066;28;20040;-73
2022/03/10 06:51:02;;;;;;;10.00;4.72;;;;;;;;;;6320916;28;20058;-73
2022/03/10 06:54:07;;;;;;;10.20;4.18;;;;;;;;;;6320631;28;20527;-73
2022/03/10 06:57:12;;;;;;;10.85;4.40;;;;;;;;;;6320611;28;20508;-74
2022/03/10 07:00:17;;;;;;;9.70;4.47;;;;;;;;;;6320710;28;20048;-74
2022/03/10 07:03:21;;;;;;;9.50;4.73;;;;;;;;;;6319661;28;20146;-74
2022/03/10 07:06:26;;;;;;;8.73;4.13;;;;;;;;;;6319507;28;20048;-74
2022/03/10 07:09:29;;;;;;;8.95;4.47;;;;;;;;;;6319883;28;20526;-73
2022/03/10 07:12:38;;;;;;;9.07;4.25;;;;;;;;;;6319645;28;20093;-74
2022/03/10 07:15:43;;;;;;;10.38;4.68;;;;;;;;;;6301339;28;20172;-74
2022/03/10 07:18:50;;;;;;;11.65;4.35;;;;;;;;;;6319884;28;20043;-75
2022/03/10 07:21:54;;;;;;;8.77;4.50;;;;;;;;;;6319998;28;20047;-74
2022/03/10 07:24:59;;;;;;;10.23;4.57;;;;;;;;;;6319304;28;20051;-74
2022/03/10 07:28:03;;;;;;;8.40;4.53;;;;;;;;;;6320041;28;20518;-74
2022/03/10 07:31:08;;;;;;;9.98;4.35;;;;;;;;;;6302081;28;20062;-73
2022/03/10 07:34:13;;;;;;;14.05;4.45;;;;;;;;;;6334936;28;20054;-73
2022/03/10 07:37:18;;;;;;;;;;;;;;;;;;6335819;28;20513;-74
2022/03/10 07:40:25;;;;;;;10.52;4.63;;;;;;;;;;6319360;28;19920;-74
2022/03/10 07:43:29;;;;;;;9.77;5.00;;;;;;;;;;6319513;28;20044;-75
2022/03/10 07:46:35;;;;;;;9.32;4.78;;;;;;;;;;6319211;28;20564;-75
2022/03/10 07:49:39;;;;;;;8.43;4.97;;;;;;;;;;6319545;28;20044;-73
2022/03/10 07:52:43;;;;;;;8.77;4.97;;;;;;;;;;6319140;28;20293;-76
2022/03/10 07:55:46;;;;;;;16.08;5.25;;;;;;;;;;6318248;28;20481;-75
2022/03/10 07:58:52;;;;;;;9.25;4.90;;;;;;;;;;6318992;28;20505;-74
2022/03/10 08:01:57;;;;;;;9.65;4.60;;;;;;;;;;6318654;28;20048;-73
2022/03/10 08:05:01;;;;;;;13.83;5.67;;;;;;;;;;6284625;28;20044;-74
2022/03/10 08:08:05;;;;;;;10.10;5.15;;;;;;;;;;6300298;28;20048;-73
2022/03/10 08:11:08;;;;;;;8.48;4.90;;;;;;;;;;6318519;28;20052;-73
2022/03/10 08:14:13;;;;;;;11.48;5.63;;;;;;;;;;6326059;28;20048;-74
2022/03/10 08:17:18;;;;;;;9.98;4.75;;;;;;;;;;6301841;28;20048;-75
2022/03/10 08:20:21;;;;;;;10.77;4.93;;;;;;;;;;6300058;28;20459;-75
2022/03/10 08:23:24;;;;;;;11.60;5.30;;;;;;;;;;6318573;28;20449;-75
2022/03/10 08:26:27;;;;;;;34.80;17.45;;;;;;;;;;6300040;28;20036;-75
2022/03/10 08:29:30;;;;;;;12.23;6.70;;;;;;;;;;6300241;28;20096;-75
2022/03/10 08:32:35;;;;;;;11.50;5.38;;;;;;;;;;6318179;28;20101;-74
2022/03/10 08:35:38;;;;;;;9.38;4.85;;;;;;;;;;6334338;28;20044;-75
2022/03/10 08:38:43;;;;;;;9.20;4.72;;;;;;;;;;6318079;28;20048;-75
2022/03/10 08:41:47;;;;;;;9.13;4.53;;;;;;;;;;6318481;28;20104;-75
2022/03/10 08:44:52;;;;;;;10.30;4.65;;;;;;;;;;6299981;28;20047;-75
2022/03/10 08:47:58;;;;;;;8.05;4.38;;;;;;;;;;6299403;28;20048;-76
2022/03/10 08:51:04;;;;;;;9.65;4.40;;;;;;;;;;6317833;28;20055;-75
2022/03/10 08:54:10;;;;;;;8.43;4.63;;;;;;;;;;6299579;28;20044;-75
2022/03/10 08:57:18;;;;;;;8.50;4.50;;;;;;;;;;6317660;28;20409;-75
2022/03/10 09:00:22;;;;;;;8.85;4.00;;;;;;;;;;6299178;28;20135;-75
2022/03/10 09:03:34;;;;;;;7.18;3.85;;;;;;;;;;6299331;28;20044;-75
2022/03/10 09:06:38;;;;;;;8.05;4.13;;;;;;;;;;6317441;28;20058;-76
2022/03/10 09:09:43;;;;;;;7.35;4.00;;;;;;;;;;6297661;28;20044;-75
2022/03/10 09:12:49;;;;;;;7.90;4.50;;;;;;;;;;6298608;28;20405;-76
2022/03/10 09:15:54;;;;;;;9.88;5.28;;;;;;;;;;6316785;28;20388;-77
2022/03/10 09:19:00;;;;;;;9.32;4.78;;;;;;;;;;6317033;28;20051;-75
2022/03/10 09:22:04;;;;;;;6.90;4.57;;;;;;;;;;6316593;28;20414;-77
2022/03/10 09:25:09;;;;;;;9.95;4.88;;;;;;;;;;6317396;28;20044;-75
2022/03/10 09:28:13;;;;;;;9.10;5.18;;;;;;;;;;6298639;28;20379;-75
2022/03/10 09:31:16;;;;;;;9.25;5.03;;;;;;;;;;6316852;28;20488;-75
2022/03/10 09:34:23;;;;;;;10.85;4.93;;;;;;;;;;6298653;28;20052;-77
2022/03/10 09:37:27;;;;;;;6.95;4.50;;;;;;;;;;6298703;28;20046;-75
2022/03/10 09:40:33;;;;;;;10.75;4.10;;;;;;;;;;6299548;28;20504;-74
2022/03/10 09:43:38;;;;;;;9.18;4.50;;;;;;;;;;6298284;28;20081;-74
2022/03/10 09:46:41;;;;;;;10.27;4.47;;;;;;;;;;6298913;28;20475;-75
2022/03/10 09:49:46;;;;;;;8.10;4.55;;;;;;;;;;6298116;28;20607;-74
2022/03/10 09:52:50;;;;;;;10.98;4.18;;;;;;;;;;6314623;28;20417;-75
2022/03/10 09:55:55;;;;;;;9.00;4.25;;;;;;;;;;6297091;28;20050;-75
2022/03/10 09:58:59;;;;;;;8.48;4.38;;;;;;;;;;6298512;28;20048;-75
2022/03/10 10:02:03;;;;;;;9.23;3.97;;;;;;;;;;6316989;28;20042;-75
2022/03/10 10:05:22;;;;;;;7.10;3.72;;;;;;;;;;6298197;28;20048;-74
2022/03/10 10:08:26;;;;;;;9.50;4.25;;;;;;;;;;6302153;28;20040;-77
2022/03/10 10:11:32;;;;;;;5.85;3.95;;;;;;;;;;6303744;28;20047;-77
2022/03/10 10:14:37;;;;;;;;;;;;;;;;;;6321964;28;20044;-76
2022/03/10 10:17:41;;;;;;;9.10;4.18;;;;;;;;;;6303395;28;19974;-76
2022/03/10 10:21:06;;;;;;;6.32;3.92;;;;;;;;;;6301056;28;20403;-76
2022/03/10 10:24:09;;;;;;;;;;;;;;;;;;6318610;28;20741;-75
2022/03/10 10:27:15;;;;;;;8.05;4.00;;;;;;;;;;6318536;28;20020;-75
2022/03/10 10:30:18;;;;;;;;;;;;;;;;;;6284342;28;20059;-76
2022/03/10 10:33:24;;;;;;;8.25;4.70;;;;;;;;;;6300464;28;19920;-78
2022/03/10 10:36:30;;;;;;;7.88;4.97;;;;;;;;;;6300711;28;20117;-79
2022/03/10 10:39:33;;;;;;;6.72;4.57;;;;;;;;;;6302987;28;20094;-77
2022/03/10 10:42:37;;;;;;;8.95;4.35;;;;;;;;;;6302892;28;20097;-77
2022/03/10 10:45:41;;;;;;;7.18;4.32;;;;;;;;;;6302391;28;20055;-76
2022/03/10 10:48:48;;;;;;;10.77;4.45;;;;;;;;;;6302219;28;20048;-76
2022/03/10 10:51:54;;;;;;;11.02;4.40;;;;;;;;;;6302668;28;20128;-76
2022/03/10 10:55:04;;;;;;;7.68;4.43;;;;;;;;;;6302562;28;20402;-77
2022/03/10 10:58:08;;;;;;;10.30;4.70;;;;;;;;;;6319974;28;20388;-79
2022/03/10 11:01:26;;;;;;;13.50;4.30;;;;;;;;;;6302389;28;20044;-78
2022/03/10 11:04:32;;;;;;;10.13;4.57;;;;;;;;;;6320627;28;20177;-77
2022/03/10 11:07:37;;;;;;;;;;;;;;;;;;6302891;28;20040;-75
2022/03/10 11:10:42;;;;;;;7.85;4.28;;;;;;;;;;6319990;28;19928;-79
2022/03/10 11:13:48;;;;;;;7.50;4.38;;;;;;;;;;6302234;28;20047;-76
2022/03/10 11:16:51;;;;;;;6.72;4.18;;;;;;;;;;6319770;28;20056;-76
2022/03/10 11:19:56;;;;;;;11.27;4.82;;;;;;;;;;6301455;28;20055;-77
2022/03/10 11:23:05;;;;;;;6.60;4.18;;;;;;;;;;6301677;28;20517;-77
2022/03/10 11:26:13;;;;;;;6.57;4.25;;;;;;;;;;6301747;28;20043;-77
2022/03/10 11:29:20;;;;;;;7.38;4.32;;;;;;;;;;6302176;28;20180;-77
2022/03/10 11:32:27;;;;;;;7.88;4.80;;;;;;;;;;6301388;28;20485;-76
2022/03/10 11:35:31;;;;;;;6.93;3.70;;;;;;;;;;6319813;28;20044;-77
2022/03/10 11:38:50;;;;;;;9.90;4.35;;;;;;;;;;6313712;28;20036;-74
2022/03/10 11:42:00;;;;;;;6.57;3.95;;;;;;;;;;6342545;28;20069;-76
2022/03/10 11:45:07;;;;;;;8.88;3.70;;;;;;;;;;6308726;28;20055;-76
2022/03/10 11:48:28;;;;;;;5.47;3.72;;;;;;;;;;6320553;28;20116;-75
2022/03/10 11:51:42;;;;;;;7.82;3.90;;;;;;;;;;6302390;28;20074;-76
2022/03/10 11:55:02;;;;;;;7.93;3.90;;;;;;;;;;6320856;28;20482;-75
2022/03/10 11:58:07;;;;;;;7.90;4.20;;;;;;;;;;6300675;28;20047;-76
2022/03/10 12:01:18;;;;;;;5.30;3.75;;;;;;;;;;6301080;28;20051;-76
2022/03/10 12:04:22;;;;;;;7.38;3.53;;;;;;;;;;6319609;28;20043;-76
2022/03/10 12:07:27;;;;;;;5.95;3.80;;;;;;;;;;6318879;28;20115;-76
2022/03/10 12:10:40;;;;;;;6.65;4.05;;;;;;;;;;6300785;28;20379;-77
2022/03/10 12:13:45;;;;;;;7.93;3.80;;;;;;;;;;6300570;28;20117;-76
2022/03/10 12:16:48;;;;;;;7.13;3.60;;;;;;;;;;6316303;28;20509;-78
2022/03/10 12:20:13;;;;;;;7.72;4.20;;;;;;;;;;6315507;28;20044;-80
2022/03/10 12:23:19;;;;;;;7.20;3.60;;;;;;;;;;6315196;28;20078;-79
2022/03/10 12:26:26;;;;;;;7.45;3.85;;;;;;;;;;6315958;28;20091;-78
2022/03/10 12:29:33;;;;;;;7.15;3.25;;;;;;;;;;6296402;28;20068;-79
2022/03/10 12:32:41;;;;;;;6.63;3.60;;;;;;;;;;6314027;28;20048;-78
2022/03/10 12:35:47;;;;;;;8.73;4.18;;;;;;;;;;6297294;28;20509;-78
2022/03/10 12:38:50;;;;;;;7.53;3.88;;;;;;;;;;6315703;28;20105;-77
2022/03/10 12:42:00;;;;;;;7.70;4.00;;;;;;;;;;6298256;28;20043;-78
2022/03/10 12:45:07;;;;;;;7.03;3.95;;;;;;;;;;6280874;28;20040;-78
2022/03/10 12:48:13;;;;;;;7.43;4.10;;;;;;;;;;6317190;28;20044;-80
2022/03/10 12:51:20;;;;;;;6.43;3.38;;;;;;;;;;6318394;28;20093;-78
2022/03/10 12:54:25;;;;;;;4.68;2.63;;;;;;;;;;6299288;28;20651;-77
2022/03/10 12:57:28;;;;;;;5.30;2.88;;;;;;;;;;6317671;28;20043;-76
2022/03/10 13:00:39;;;;;;;5.30;2.85;;;;;;;;;;6303365;28;20040;-75
2022/03/10 13:03:49;;;;;;;5.07;2.85;;;;;;;;;;6328204;28;20077;-75
2022/03/10 13:06:58;;;;;;;4.18;2.53;;;;;;;;;;6314953;28;20409;-78
2022/03/10 13:10:05;;;;;;;4.97;2.90;;;;;;;;;;6342993;28;20169;-78
2022/03/10 13:13:08;;;;;;;4.57;2.70;;;;;;;;;;6325147;28;20497;-77
2022/03/10 13:16:15;;;;;;;4.25;2.80;;;;;;;;;;6323894;28;20589;-77
2022/03/10 13:19:22;;;;;;;5.57;2.25;;;;;;;;;;6324627;28;20052;-74
2022/03/10 13:22:26;;;;;;;7.97;2.70;;;;;;;;;;6325014;28;20058;-78
2022/03/10 13:25:33;;;;;;;3.38;2.28;;;;;;;;;;6342647;28;20058;-76
2022/03/10 13:28:37;;;;;;;4.88;2.75;;;;;;;;;;6342022;28;20040;-78
2022/03/10 13:31:42;;;;;;;4.03;2.50;;;;;;;;;;6319375;28;20494;-76
2022/03/10 13:34:46;;;;;;;7.40;2.90;;;;;;;;;;6299064;28;20032;-77
2022/03/10 13:37:49;;;;;;;60.20;6.03;;;;;;;;;;6298706;28;20398;-77
2022/03/10 13:40:54;;;;;;;3.85;2.70;;;;;;;;;;6298590;28;20040;-76
2022/03/10 13:43:57;;;;;;;6.10;2.42;;;;;;;;;;6298741;28;20661;-76
2022/03/10 13:47:05;;;;;;;6.72;2.67;;;;;;;;;;6298554;28;20048;-76
2022/03/10 13:50:10;;;;;;;7.57;2.97;;;;;;;;;;6298267;28;20047;-75
2022/03/10 13:53:14;;;;;;;6.93;2.60;;;;;;;;;;6316839;28;20471;-75
2022/03/10 13:56:17;;;;;;;7.25;2.55;;;;;;;;;;6309428;28;20043;-78
2022/03/10 13:59:21;;;;;;;4.82;2.70;;;;;;;;;;6341187;28;20047;-76
2022/03/10 14:02:28;;;;;;;4.72;2.60;;;;;;;;;;6323860;28;20411;-77
2022/03/10 14:05:39;;;;;;;7.45;4.05;;;;;;;;;;6341718;28;20044;-76
2022/03/10 14:08:47;;;;;;;3.88;2.38;;;;;;;;;;6323556;28;20507;-77
2022/03/10 14:11:53;;;;;;;3.75;2.50;;;;;;;;;;6322981;28;20482;-75
2022/03/10 14:14:56;;;;;;;3.70;2.03;;;;;;;;;;6341354;28;20056;-78
2022/03/10 14:18:01;;;;;;;3.70;2.42;;;;;;;;;;6341787;28;20051;-78
2022/03/10 14:21:05;;;;;;;6.17;3.33;;;;;;;;;;6341559;28;20060;-75
2022/03/10 14:24:11;;;;;;;3.28;2.38;;;;;;;;;;6339309;28;20047;-77
2022/03/10 14:27:15;;;;;;;3.10;2.30;;;;;;;;;;6303142;28;20426;-76
2022/03/10 14:30:24;;;;;;;5.75;2.90;;;;;;;;;;6315495;28;20367;-73
2022/03/10 14:33:31;;;;;;;6.43;3.33;;;;;;;;;;6329531;28;20054;-73
2022/03/10 14:36:35;;;;;;;4.53;2.60;;;;;;;;;;6322074;28;20046;-73
2022/03/10 14:39:38;;;;;;;6.18;2.78;;;;;;;;;;6322973;28;20493;-78
2022/03/10 14:42:42;;;;;;;8.00;2.92;;;;;;;;;;6322192;28;20502;-76
2022/03/10 14:45:50;;;;;;;5.00;2.70;;;;;;;;;;6322357;28;20379;-76
2022/03/10 14:48:55;;;;;;;8.07;3.58;;;;;;;;;;6339808;28;20085;-79
2022/03/10 14:51:59;;;;;;;5.55;3.15;;;;;;;;;;6321405;28;20043;-76
2022/03/10 14:55:02;;;;;;;4.43;2.47;;;;;;;;;;6291704;28;20048;-78
2022/03/10 14:58:06;;;;;;;4.68;2.80;;;;;;;;;;6344419;28;20047;-75
2022/03/10 15:01:09;;;;;;;3.97;2.55;;;;;;;;;;6293931;28;20047;-77
2022/03/10 15:04:19;;;;;;;4.63;3.03;;;;;;;;;;6329050;28;20061;-77
2022/03/10 15:07:22;;;;;;;4.88;2.60;;;;;;;;;;6310471;28;20118;-78
2022/03/10 15:10:26;;;;;;;4.55;2.47;;;;;;;;;;6319128;28;20039;-75
2022/03/10 15:13:29;;;;;;;6.75;3.00;;;;;;;;;;6318764;28;20132;-78
2022/03/10 15:16:32;;;;;;;3.60;2.90;;;;;;;;;;6319934;28;20471;-77
2022/03/10 15:19:37;;;;;;;6.07;2.67;;;;;;;;;;6320303;28;20140;-79
2022/03/10 15:22:54;;;;;;;5.47;2.58;;;;;;;;;;6302830;28;20044;-77
2022/03/10 15:25:58;;;;;;;5.75;3.25;;;;;;;;;;6319499;28;20056;-75
2022/03/10 15:29:01;;;;;;;9.48;2.88;;;;;;;;;;6307256;28;20501;-82
2022/03/10 15:32:09;;;;;;;19.00;9.05;;;;;;;;;;6309909;28;20112;-83
2022/03/10 15:35:16;;;;;;;8.25;3.42;;;;;;;;;;6231918;28;20042;-84
2022/03/10 15:38:19;;;;;;;5.28;2.72;;;;;;;;;;6224087;28;20061;-76
2022/03/10 15:41:22;;;;;;;5.18;3.03;;;;;;;;;;6223937;28;20060;-75
2022/03/10 15:44:25;;;;;;;4.97;2.70;;;;;;;;;;6205935;28;20052;-75
2022/03/10 15:47:28;;;;;;;5.75;3.35;;;;;;;;;;6224631;28;20056;-76
2022/03/10 15:50:33;;;;;;;7.85;3.65;;;;;;;;;;6236090;28;20061;-74
2022/03/10 15:53:38;;;;;;;9.07;4.10;;;;;;;;;;6230784;28;20049;-73
2022/03/10 15:56:41;;;;;;;6.85;3.53;;;;;;;;;;6235465;28;20048;-73
2022/03/10 15:59:44;;;;;;;8.27;3.70;;;;;;;;;;6235496;28;20404;-73
2022/03/10 16:02:53;;;;;;;6.57;3.67;;;;;;;;;;6233734;28;20049;-74
2022/03/10 16:05:58;;;;;;;6.38;3.60;;;;;;;;;;6234138;28;20458;-73
2022/03/10 16:09:01;;;;;;;9.80;3.90;;;;;;;;;;6233506;28;20043;-74
2022/03/10 16:12:05;;;;;;;7.68;3.45;;;;;;;;;;6217579;28;20399;-74
2022/03/10 16:15:10;;;;;;;8.73;3.70;;;;;;;;;;6217186;28;20088;-74
2022/03/10 16:18:16;;;;;;;6.05;3.30;;;;;;;;;;6208304;28;20050;-74
2022/03/10 16:21:20;;;;;;;6.68;3.10;;;;;;;;;;6223108;28;20129;-75
2022/03/10 16:24:31;;;;;;;9.82;3.97;;;;;;;;;;6221453;28;20045;-74
2022/03/10 16:27:34;;;;;;;6.35;3.05;;;;;;;;;;6222489;28;20621;-75
2022/03/10 16:30:38;;;;;;;13.77;4.60;;;;;;;;;;6222925;28;20042;-74
2022/03/10 16:33:40;;;;;;;8.05;3.80;;;;;;;;;;6222476;28;20053;-74
2022/03/10 16:36:45;;;;;;;7.93;3.50;;;;;;;;;;6220010;28;20057;-75
2022/03/10 16:39:50;;;;;;;8.60;3.60;;;;;;;;;;6223438;28;20046;-73
2022/03/10 16:42:53;;;;;;;7.97;3.58;;;;;;;;;;6221217;28;20050;-73
2022/03/10 16:45:59;;;;;;;7.82;3.42;;;;;;;;;;6220717;28;20512;-74
2022/03/10 16:49:04;;;;;;;8.05;3.95;;;;;;;;;;6227607;28;20409;-75
2022/03/10 16:52:09;;;;;;;7.68;3.60;;;;;;;;;;6231984;28;20038;-73
2022/03/10 16:55:12;;;;;;;9.27;3.80;;;;;;;;;;6231641;28;20045;-73
2022/03/10 16:58:16;;;;;;;9.18;3.70;;;;;;;;;;6228071;28;20052;-74
2022/03/10 17:01:19;;;;;;;7.10;3.92;;;;;;;;;;6241451;28;20041;-74
2022/03/10 17:04:22;;;;;;;9.52;3.50;;;;;;;;;;6243588;28;20416;-73
2022/03/10 17:07:29;;;;;;;7.93;2.95;;;;;;;;;;6244453;28;20061;-74
2022/03/10 17:10:32;;;;;;;4.97;3.05;;;;;;;;;;6244273;28;20049;-73
2022/03/10 17:13:35;;;;;;;10.20;4.25;;;;;;;;;;6243652;28;20048;-75
2022/03/10 17:16:37;;;;;;;7.88;3.53;;;;;;;;;;6240128;28;20048;-74
2022/03/10 17:19:44;;;;;;;7.47;3.47;;;;;;;;;;6222896;28;20049;-74
2022/03/10 17:22:48;;;;;;;8.63;3.42;;;;;;;;;;6241787;28;20132;-73
2022/03/10 17:25:52;;;;;;;7.63;3.30;;;;;;;;;;6242048;28;20049;-74
2022/03/10 17:28:55;;;;;;;9.63;3.85;;;;;;;;;;6241021;28;20772;-74
2022/03/10 17:31:58;;;;;;;8.07;3.83;;;;;;;;;;6241886;28;20046;-75
2022/03/10 17:35:01;;;;;;;6.07;3.33;;;;;;;;;;6238917;28;20069;-73
2022/03/10 17:38:09;;;;;;;8.52;3.30;;;;;;;;;;6235208;28;20046;-73
2022/03/10 17:41:12;;;;;;;5.53;3.25;;;;;;;;;;6225649;28;20042;-74
2022/03/10 17:44:16;;;;;;;7.85;3.97;;;;;;;;;;6219227;28;20054;-74
2022/03/10 17:47:18;;;;;;;7.82;3.97;;;;;;;;;;6220097;28;20050;-74
2022/03/10 17:50:24;;;;;;;6.60;3.78;;;;;;;;;;6232867;28;20061;-74
2022/03/10 17:53:33;;;;;;;9.95;3.97;;;;;;;;;;6202953;28;20073;-73
2022/03/10 17:56:38;;;;;;;20.88;10.32;;;;;;;;;;6219525;28;20515;-74
2022/03/10 17:59:43;;;;;;;6.17;3.67;;;;;;;;;;6219515;28;20503;-72
2022/03/10 18:02:47;;;;;;;8.63;4.05;;;;;;;;;;6218581;28;20423;-74
2022/03/10 18:05:50;;;;;;;11.85;3.80;;;;;;;;;;6218299;28;20203;-73
2022/03/10 18:08:55;;;;;;;7.95;3.75;;;;;;;;;;6217566;28;20119;-74
2022/03/10 18:12:00;;;;;;;6.65;3.70;;;;;;;;;;6232299;28;20168;-74
2022/03/10 18:15:04;;;;;;;7.40;4.22;;;;;;;;;;6234810;28;20460;-74
2022/03/10 18:18:07;;;;;;;12.27;4.13;;;;;;;;;;6219383;28;20045;-75
2022/03/10 18:21:12;;;;;;;7.45;3.65;;;;;;;;;;6218285;28;20050;-74
2022/03/10 18:24:17;;;;;;;7.78;4.03;;;;;;;;;;6217720;28;20048;-73
2022/03/10 18:27:20;;;;;;;9.85;4.65;;;;;;;;;;6244554;28;20045;-73
2022/03/10 18:30:26;;;;;;;8.93;4.32;;;;;;;;;;6244674;28;20097;-74